Time;durP1;ratioP1;P1;durP2;ratioP2;P2;SDS_P1;SDS_P2;PMS_P1;PMS_P2;Temp;Humidity;BMP_temperature;BMP_pressure;BME280_temperature;BME280_humidity;BME280_pressure;Samples;Min_cycle;Max_cycle;Signal;HPM_P1;HPM_P2
2022/01/31 00:01:40;;;;;;;6.00;1.20;;;;;;;0.08;70.00;98912.10;105251;1273;59672;-70
2022/01/31 00:04:29;;;;;;;6.50;1.20;;;;;;;0.10;70.37;98914.58;104916;1274;59574;-71
2022/01/31 00:07:17;;;;;;;5.60;1.10;;;;;;;0.10;70.80;98908.65;104684;1273;71737;-70
2022/01/31 00:10:10;;;;;;;5.80;1.10;;;;;;;0.11;70.97;98917.14;105080;1273;68544;-70
2022/01/31 00:15:53;;;;;;;6.20;1.30;;;;;;;0.08;72.01;98911.02;105061;1273;59757;-70
2022/01/31 00:18:42;;;;;;;4.60;1.00;;;;;;;0.07;72.27;98904.11;105039;1274;60823;-70
2022/01/31 00:21:30;;;;;;;5.70;1.20;;;;;;;0.05;72.89;98905.27;104974;1273;71531;-71
2022/01/31 00:24:19;;;;;;;5.90;1.20;;;;;;;0.03;73.30;98899.47;104854;1274;67326;-71
2022/01/31 00:27:08;;;;;;;5.70;1.10;;;;;;;0.03;73.90;98900.67;103925;1274;1002393;-70
2022/01/31 00:29:57;;;;;;;7.70;1.30;;;;;;;0.06;74.34;98890.23;105093;1273;59771;-71
2022/01/31 00:32:47;;;;;;;4.60;1.10;;;;;;;0.09;74.82;98889.20;104491;1274;1016298;-70
2022/01/31 00:35:36;;;;;;;4.60;1.00;;;;;;;0.12;75.08;98890.27;104635;1274;71978;-70
2022/01/31 00:38:25;;;;;;;7.90;1.30;;;;;;;0.10;75.58;98881.44;105065;1274;67904;-70
2022/01/31 00:41:13;;;;;;;8.60;1.30;;;;;;;0.09;75.83;98878.38;104914;1273;73008;-70
2022/01/31 00:44:16;;;;;;;4.90;1.40;;;;;;;0.08;76.05;98875.43;105103;1273;59767;-71
2022/01/31 00:47:16;;;;;;;5.10;1.00;;;;;;;0.09;76.38;98875.76;104779;1274;60586;-70
2022/01/31 00:50:08;;;;;;;9.00;1.60;;;;;;;0.13;75.97;98873.23;104640;1274;73293;-70
2022/01/31 00:52:56;;;;;;;7.00;1.20;;;;;;;0.17;75.49;98872.71;104915;1275;68157;-70
2022/01/31 00:55:45;;;;;;;5.90;1.30;;;;;;;0.20;75.29;98868.04;104799;1274;73213;-70
2022/01/31 00:58:34;;;;;;;5.10;1.10;;;;;;;0.22;74.96;98869.81;104618;1273;59786;-70
2022/01/31 01:01:24;;;;;;;4.50;1.10;;;;;;;0.23;74.43;98867.00;105084;1273;60757;-71
2022/01/31 01:04:20;;;;;;;5.90;1.20;;;;;;;0.23;73.85;98861.92;104821;1273;72130;-71
2022/01/31 01:07:08;;;;;;;6.60;1.40;;;;;;;0.22;73.22;98856.59;105067;1275;67142;-71
2022/01/31 01:09:58;;;;;;;5.70;1.40;;;;;;;0.21;72.88;98853.66;104852;1273;73194;-71
2022/01/31 01:12:48;;;;;;;6.60;1.50;;;;;;;0.19;72.72;98845.23;104223;1273;1003641;-70
2022/01/31 01:15:42;;;;;;;5.10;1.20;;;;;;;0.15;72.63;98847.52;105049;1273;60417;-71
2022/01/31 01:18:30;;;;;;;8.50;1.30;;;;;;;0.10;72.83;98841.34;105027;1273;73569;-70
2022/01/31 01:21:20;;;;;;;7.30;1.20;;;;;;;0.03;72.89;98835.29;105172;1273;66988;-70
2022/01/31 01:24:08;;;;;;;5.80;1.10;;;;;;;-0.05;73.14;98827.46;104932;1274;72874;-70
2022/01/31 01:26:57;;;;;;;5.10;1.20;;;;;;;-0.12;73.60;98825.77;104246;1274;1003751;-70
2022/01/31 01:29:47;;;;;;;5.90;1.40;;;;;;;-0.20;73.88;98819.56;104830;1273;59620;-70
2022/01/31 01:32:47;;;;;;;6.20;1.50;;;;;;;-0.28;74.35;98818.60;105101;1273;72271;-72
2022/01/31 01:35:38;;;;;;;7.50;1.40;;;;;;;-0.36;74.53;98818.66;104961;1274;68417;-71
2022/01/31 01:38:29;;;;;;;5.60;1.30;;;;;;;-0.42;74.84;98813.23;104960;1273;72982;-71
2022/01/31 01:41:18;;;;;;;5.70;1.10;;;;;;;-0.46;75.07;98803.02;104742;1274;59880;-71
2022/01/31 01:44:07;;;;;;;6.60;1.30;;;;;;;-0.50;75.38;98802.48;104654;1274;61238;-71
2022/01/31 01:46:57;;;;;;;7.90;1.50;;;;;;;-0.55;75.41;98798.91;104823;1274;71857;-71
2022/01/31 01:49:47;;;;;;;9.40;1.50;;;;;;;-0.59;75.50;98801.39;104910;1274;66946;-72
2022/01/31 01:52:37;;;;;;;8.10;1.30;;;;;;;-0.64;75.74;98797.80;104811;1273;73002;-72
2022/01/31 01:55:26;;;;;;;4.90;1.00;;;;;;;-0.67;76.11;98799.20;104987;1274;59768;-72
2022/01/31 01:58:16;;;;;;;11.60;1.50;;;;;;;-0.72;76.23;98790.73;105047;1273;59553;-71
2022/01/31 02:01:09;;;;;;;6.20;1.30;;;;;;;-0.74;76.41;98796.59;105261;1273;73582;-72
2022/01/31 02:04:05;;;;;;;5.50;1.50;;;;;;;-0.76;76.50;98789.20;104914;1273;68412;-72
2022/01/31 02:06:56;;;;;;;8.40;1.60;;;;;;;-0.79;76.51;98788.81;104814;1273;70388;-71
2022/01/31 02:09:52;;;;;;;7.40;1.50;;;;;;;-0.82;76.65;98788.82;104587;1273;59733;-71
2022/01/31 02:12:48;;;;;;;7.90;1.10;;;;;;;-0.88;76.73;98785.81;104925;1274;59714;-72
2022/01/31 02:15:50;;;;;;;5.20;1.20;;;;;;;-0.92;77.12;98784.45;104596;1275;73639;-72
2022/01/31 02:19:02;;;;;;;5.70;1.10;;;;;;;-0.96;77.31;98785.55;105029;1273;68625;-72
2022/01/31 02:22:14;;;;;;;7.10;1.30;;;;;;;-0.99;77.34;98787.93;104367;1273;1003406;-72
2022/01/31 02:25:15;;;;;;;7.50;1.40;;;;;;;-0.99;77.30;98782.39;104854;1275;59689;-72
2022/01/31 02:28:36;;;;;;;6.70;1.10;;;;;;;-1.01;77.34;98782.45;104044;1273;1003081;-72
2022/01/31 02:31:24;;;;;;;6.60;1.30;;;;;;;-1.03;77.29;98782.01;104882;1273;73734;-72
2022/01/31 02:34:14;;;;;;;8.50;1.20;;;;;;;-1.04;77.35;98781.04;104576;1273;67237;-72
2022/01/31 02:37:03;;;;;;;9.60;1.60;;;;;;;-1.07;77.63;98777.34;104820;1274;73041;-72
2022/01/31 02:39:52;;;;;;;9.70;1.50;;;;;;;-1.09;77.42;98780.07;104665;1274;59769;-72
2022/01/31 02:42:41;;;;;;;8.80;1.40;;;;;;;-1.13;77.58;98783.22;104876;1273;59747;-71
2022/01/31 02:45:30;;;;;;;5.80;1.10;;;;;;;-1.15;77.69;98786.46;104356;1274;1004298;-72
2022/01/31 02:48:23;;;;;;;9.40;1.70;;;;;;;-1.17;78.10;98781.18;104810;1273;67003;-72
2022/01/31 02:51:12;;;;;;;12.60;2.70;;;;;;;-1.20;78.10;98776.27;104886;1273;73071;-72
2022/01/31 02:54:02;;;;;;;15.70;4.60;;;;;;;-1.22;77.89;98773.91;104775;1274;59606;-72
2022/01/31 02:56:51;;;;;;;19.60;4.90;;;;;;;-1.22;77.87;98773.39;104801;1273;60643;-72
2022/01/31 02:59:40;;;;;;;34.00;8.60;;;;;;;-1.23;78.12;98772.05;104847;1274;72177;-71
2022/01/31 03:02:29;;;;;;;26.40;7.00;;;;;;;-1.23;78.19;98778.50;105069;1273;67017;-72
2022/01/31 03:05:17;;;;;;;38.50;9.70;;;;;;;-1.22;78.11;98785.94;104028;1273;1002704;-72
2022/01/31 03:08:07;;;;;;;20.60;5.90;;;;;;;-1.23;77.96;98788.59;104814;1274;59768;-72
2022/01/31 03:10:55;;;;;;;17.30;3.90;;;;;;;-1.24;78.06;98780.45;104548;1273;60757;-72
2022/01/31 03:14:05;;;;;;;9.10;2.80;;;;;;;-1.25;77.93;98778.98;104978;1274;72080;-71
2022/01/31 03:16:54;;;;;;;13.60;3.40;;;;;;;-1.26;77.80;98787.55;104543;1273;68216;-72
2022/01/31 03:19:54;;;;;;;10.10;2.30;;;;;;;-1.27;77.59;98788.30;104706;1273;72204;-72
2022/01/31 03:22:43;;;;;;;13.80;3.90;;;;;;;-1.26;77.80;98787.04;104869;1274;59804;-72
2022/01/31 03:25:33;;;;;;;14.30;4.20;;;;;;;-1.26;77.66;98791.02;104650;1276;60329;-72
2022/01/31 03:28:22;;;;;;;10.10;3.00;;;;;;;-1.25;77.36;98794.11;104774;1273;73525;-72
2022/01/31 03:31:12;;;;;;;15.60;5.30;;;;;;;-1.25;77.53;98797.04;104900;1275;67330;-73
2022/01/31 03:34:00;;;;;;;11.10;4.00;;;;;;;-1.22;77.43;98795.31;105081;1273;73108;-73
2022/01/31 03:36:49;;;;;;;16.40;4.70;;;;;;;-1.20;77.52;98801.52;104565;1273;59740;-72
2022/01/31 03:39:39;;;;;;;19.30;5.90;;;;;;;-1.22;77.22;98798.30;104771;1274;59813;-72
2022/01/31 03:42:28;;;;;;;17.20;4.60;;;;;;;-1.26;77.58;98795.36;104837;1273;73254;-73
2022/01/31 03:45:16;;;;;;;11.90;3.00;;;;;;;-1.30;77.47;98792.60;105164;1274;67954;-73
2022/01/31 03:48:07;;;;;;;8.60;2.30;;;;;;;-1.35;77.66;98791.29;104782;1274;71832;-72
2022/01/31 03:50:57;;;;;;;10.80;1.90;;;;;;;-1.41;77.44;98785.15;105022;1273;59674;-73
2022/01/31 03:53:46;;;;;;;7.20;1.60;;;;;;;-1.47;77.64;98777.44;105113;1274;60871;-73
2022/01/31 03:56:35;;;;;;;7.00;1.30;;;;;;;-1.52;77.48;98776.64;103457;1273;1003840;-73
2022/01/31 03:59:55;;;;;;;8.00;1.30;;;;;;;-1.58;77.65;98775.52;104049;1275;1002958;-72
2022/01/31 04:02:43;;;;;;;9.10;1.50;;;;;;;-1.61;77.57;98774.81;104819;1273;72992;-72
2022/01/31 04:05:32;;;;;;;10.80;1.70;;;;;;;-1.63;77.57;98771.93;104876;1273;59556;-73
2022/01/31 04:08:20;;;;;;;8.00;1.60;;;;;;;-1.64;77.45;98771.12;105018;1274;60864;-72
2022/01/31 04:11:10;;;;;;;6.50;1.40;;;;;;;-1.65;77.42;98774.46;104726;1273;72077;-72
2022/01/31 04:13:59;;;;;;;5.80;1.10;;;;;;;-1.66;77.06;98772.44;104893;1273;66979;-72
2022/01/31 04:16:47;;;;;;;7.60;1.30;;;;;;;-1.68;77.11;98766.79;104651;1277;71835;-72
2022/01/31 04:19:35;;;;;;;7.00;1.30;;;;;;;-1.70;76.89;98767.20;103930;1273;1002957;-72
2022/01/31 04:22:27;;;;;;;5.20;1.30;;;;;;;-1.73;76.98;98764.58;104873;1273;59664;-72
2022/01/31 04:25:43;;;;;;;6.90;1.50;;;;;;;-1.76;77.24;98766.46;105398;1274;73073;-72
2022/01/31 04:28:40;;;;;;;6.80;1.30;;;;;;;-1.79;77.10;98766.10;105050;1274;68265;-71
2022/01/31 04:31:39;;;;;;;9.80;1.50;;;;;;;-1.81;77.23;98760.83;104638;1274;71717;-71
2022/01/31 04:34:29;;;;;;;7.10;1.40;;;;;;;-1.82;77.45;98759.63;104652;1274;59785;-71
2022/01/31 04:37:17;;;;;;;7.10;1.80;;;;;;;-1.81;77.48;98760.42;105034;1273;60462;-72
2022/01/31 04:40:13;;;;;;;10.00;1.30;;;;;;;-1.78;77.48;98758.19;104592;1274;1003087;-71
2022/01/31 04:43:01;;;;;;;7.10;1.40;;;;;;;-1.73;77.34;98753.46;104880;1274;68292;-71
2022/01/31 04:45:50;;;;;;;5.40;1.10;;;;;;;-1.68;77.59;98756.35;104866;1273;74787;-71
2022/01/31 04:48:38;;;;;;;6.40;1.30;;;;;;;-1.62;77.22;98753.45;104938;1273;59762;-71
2022/01/31 04:51:27;;;;;;;5.50;1.30;;;;;;;-1.57;77.30;98748.35;105010;1274;60888;-72
2022/01/31 04:54:16;;;;;;;6.50;1.40;;;;;;;-1.53;76.53;98751.45;105287;1274;73677;-72
2022/01/31 04:57:04;;;;;;;5.70;1.10;;;;;;;-1.49;76.71;98740.98;104863;1274;66923;-71
2022/01/31 04:59:53;;;;;;;8.00;1.40;;;;;;;-1.46;76.66;98739.30;105066;1274;72127;-72
2022/01/31 05:02:41;;;;;;;7.20;1.30;;;;;;;-1.46;76.63;98740.31;104765;1274;59659;-71
2022/01/31 05:05:30;;;;;;;10.30;1.60;;;;;;;-1.45;76.56;98739.95;104768;1276;59750;-71
2022/01/31 05:08:24;;;;;;;7.90;1.30;;;;;;;-1.46;76.23;98734.54;104573;1274;72065;-71
2022/01/31 05:11:13;;;;;;;7.30;1.50;;;;;;;-1.45;76.18;98737.83;105033;1274;68018;-71
2022/01/31 05:14:07;;;;;;;8.20;1.40;;;;;;;-1.46;76.32;98726.75;104852;1274;73131;-72
2022/01/31 05:16:55;;;;;;;6.40;1.70;;;;;;;-1.46;76.31;98732.50;105089;1274;59643;-72
2022/01/31 05:19:43;;;;;;;9.20;1.40;;;;;;;-1.45;76.45;98736.29;104121;1274;1002987;-72
2022/01/31 05:22:32;;;;;;;7.60;1.50;;;;;;;-1.44;76.52;98726.27;104869;1274;72114;-72
2022/01/31 05:25:21;;;;;;;9.30;1.60;;;;;;;-1.43;76.49;98724.32;105122;1274;68220;-73
2022/01/31 05:28:10;;;;;;;8.30;1.40;;;;;;;-1.41;76.45;98724.77;104925;1274;72613;-73
2022/01/31 05:30:58;;;;;;;7.50;1.70;;;;;;;-1.41;76.44;98723.70;105448;1274;59780;-75
2022/01/31 05:33:46;;;;;;;10.40;1.80;;;;;;;-1.40;76.49;98720.70;104957;1274;60980;-73
2022/01/31 05:36:34;;;;;;;9.70;1.80;;;;;;;-1.39;76.39;98716.66;105159;1274;73355;-74
2022/01/31 05:39:25;;;;;;;10.50;1.70;;;;;;;-1.40;76.30;98710.10;104590;1274;1003816;-74
2022/01/31 05:42:13;;;;;;;8.10;2.10;;;;;;;-1.41;76.56;98715.33;104184;1274;1003562;-73
2022/01/31 05:45:03;;;;;;;6.10;1.50;;;;;;;-1.41;76.43;98711.51;104898;1274;59702;-73
2022/01/31 05:47:51;;;;;;;7.80;2.00;;;;;;;-1.44;76.47;98703.46;104892;1274;59638;-74
2022/01/31 05:50:39;;;;;;;10.00;1.80;;;;;;;-1.44;76.40;98703.86;105336;1274;73526;-73
2022/01/31 05:53:27;;;;;;;8.20;1.60;;;;;;;-1.46;76.72;98705.86;105366;1273;68270;-73
2022/01/31 05:56:18;;;;;;;7.40;1.50;;;;;;;-1.49;76.53;98704.27;105015;1274;71745;-73
2022/01/31 05:59:07;;;;;;;7.30;2.00;;;;;;;-1.52;76.84;98702.85;105083;1273;59657;-73
2022/01/31 06:01:57;;;;;;;6.60;1.60;;;;;;;-1.56;76.79;98700.80;105490;1274;59694;-73
2022/01/31 06:04:47;;;;;;;7.10;1.60;;;;;;;-1.58;77.39;98704.73;105110;1274;71873;-74
2022/01/31 06:07:37;;;;;;;9.00;1.70;;;;;;;-1.63;77.18;98702.86;104907;1273;68340;-74
2022/01/31 06:10:26;;;;;;;6.90;1.50;;;;;;;-1.68;77.34;98704.16;104591;1275;71653;-72
2022/01/31 06:13:17;;;;;;;8.90;2.00;;;;;;;-1.73;77.87;98697.27;105034;1273;59698;-74
2022/01/31 06:16:05;;;;;;;9.00;1.70;;;;;;;-1.80;78.09;98699.03;105126;1273;59698;-73
2022/01/31 06:18:56;;;;;;;9.10;1.80;;;;;;;-1.86;78.13;98692.16;104896;1274;73324;-73
2022/01/31 06:21:44;;;;;;;7.90;2.20;;;;;;;-1.91;78.28;98687.73;105168;1273;65665;-73
2022/01/31 06:24:32;;;;;;;7.50;1.70;;;;;;;-1.96;78.37;98692.29;104980;1275;70567;-73
2022/01/31 06:27:31;;;;;;;7.40;1.70;;;;;;;-1.99;78.67;98692.45;105104;1273;59748;-73
2022/01/31 06:30:20;;;;;;;9.30;1.90;;;;;;;-2.00;78.75;98690.93;105257;1274;60000;-73
2022/01/31 06:33:09;;;;;;;9.90;1.90;;;;;;;-1.98;78.92;98688.05;104748;1274;73944;-74
2022/01/31 06:35:59;;;;;;;8.80;2.00;;;;;;;-1.95;78.73;98688.10;104201;1273;1003123;-73
2022/01/31 06:38:48;;;;;;;9.90;2.10;;;;;;;-1.94;78.77;98686.98;104839;1273;73525;-73
2022/01/31 06:41:42;;;;;;;10.50;2.10;;;;;;;-1.92;78.70;98689.69;105146;1273;59759;-74
2022/01/31 06:44:31;;;;;;;8.80;2.10;;;;;;;-1.93;78.74;98681.70;104919;1274;59624;-74
2022/01/31 06:47:20;;;;;;;10.60;2.20;;;;;;;-1.91;78.82;98683.02;105368;1273;73959;-74
2022/01/31 06:50:09;;;;;;;10.30;2.20;;;;;;;-1.90;78.78;98680.90;104716;1274;68291;-74
2022/01/31 06:53:01;;;;;;;9.60;2.00;;;;;;;-1.90;78.63;98678.98;104237;1274;1003033;-74
2022/01/31 06:55:50;;;;;;;7.90;1.70;;;;;;;-1.89;78.67;98681.37;104445;1273;1003741;-73
2022/01/31 06:58:42;;;;;;;8.80;1.90;;;;;;;-1.88;78.45;98673.50;104831;1275;60645;-74
2022/01/31 07:01:30;;;;;;;8.60;2.00;;;;;;;-1.87;78.42;98671.35;105086;1277;71693;-73
2022/01/31 07:04:19;;;;;;;10.00;1.90;;;;;;;-1.85;78.42;98671.95;104771;1274;68112;-74
2022/01/31 07:07:28;;;;;;;10.20;1.80;;;;;;;-1.82;78.29;98670.23;105091;1273;73682;-80
2022/01/31 07:10:19;;;;;;;7.20;1.70;;;;;;;-1.76;78.39;98668.90;106034;1274;59574;-78
2022/01/31 07:13:24;;;;;;;8.70;2.10;;;;;;;-1.69;77.82;98669.10;105640;1275;59767;-79
2022/01/31 07:16:17;;;;;;;8.80;2.50;;;;;;;-1.62;77.87;98669.11;105531;1274;73872;-79
2022/01/31 07:19:10;;;;;;;8.20;2.00;;;;;;;-1.55;77.37;98673.60;105319;1274;477625;-79
2022/01/31 07:22:03;;;;;;;11.40;2.90;;;;;;;-1.48;77.42;98674.33;105640;1275;73389;-78
2022/01/31 07:25:08;;;;;;;8.80;1.80;;;;;;;-1.42;77.06;98674.48;105870;1274;59730;-80
2022/01/31 07:28:09;;;;;;;7.70;1.90;;;;;;;-1.38;76.85;98665.60;105670;1274;60077;-74
2022/01/31 07:31:01;;;;;;;10.30;2.00;;;;;;;-1.31;76.67;98667.73;104359;1275;1002765;-74
2022/01/31 07:33:51;;;;;;;10.30;2.50;;;;;;;-1.25;76.58;98667.38;104491;1274;1003535;-75
2022/01/31 07:36:43;;;;;;;8.80;2.30;;;;;;;-1.20;76.39;98672.91;105202;1274;71719;-74
2022/01/31 07:39:33;;;;;;;10.70;2.60;;;;;;;-1.16;76.13;98667.79;105330;1274;59688;-74
2022/01/31 07:42:23;;;;;;;13.40;2.80;;;;;;;-1.05;76.21;98671.42;105071;1274;61697;-74
2022/01/31 07:45:13;;;;;;;9.10;2.90;;;;;;;-0.94;75.96;98675.20;104801;1274;72945;-73
2022/01/31 07:48:02;;;;;;;8.20;2.30;;;;;;;-0.84;75.52;98672.58;105055;1274;68692;-74
2022/01/31 07:50:57;;;;;;;7.00;1.70;;;;;;;-0.74;74.85;98669.62;104967;1274;72977;-74
2022/01/31 07:53:46;;;;;;;10.60;2.80;;;;;;;-0.67;74.95;98679.67;104897;1274;59785;-74
2022/01/31 07:56:36;;;;;;;11.60;2.50;;;;;;;-0.56;74.78;98678.41;105107;1275;62271;-74
2022/01/31 07:59:27;;;;;;;12.40;2.70;;;;;;;-0.47;73.72;98679.48;105117;1274;74000;-74
2022/01/31 08:02:15;;;;;;;10.00;2.50;;;;;;;-0.42;73.50;98673.98;105165;1274;67297;-74
2022/01/31 08:05:07;;;;;;;9.30;2.20;;;;;;;-0.32;73.25;98670.34;104981;1274;72973;-74
2022/01/31 08:07:55;;;;;;;7.80;2.00;;;;;;;-0.23;72.97;98659.87;105266;1274;59673;-74
2022/01/31 08:10:44;;;;;;;8.90;2.30;;;;;;;-0.14;72.67;98664.61;105107;1274;59764;-73
2022/01/31 08:13:34;;;;;;;7.80;2.10;;;;;;;-0.07;72.29;98669.42;104906;1273;71672;-74
2022/01/31 08:16:24;;;;;;;9.30;2.40;;;;;;;0.02;71.97;98667.73;105247;1277;66510;-74
2022/01/31 08:19:13;;;;;;;10.20;2.50;;;;;;;0.11;71.34;98659.39;104888;1274;72853;-74
2022/01/31 08:22:22;;;;;;;9.00;2.60;;;;;;;0.18;70.83;98649.05;104863;1275;60074;-74
2022/01/31 08:25:14;;;;;;;11.40;2.70;;;;;;;0.29;70.68;98646.47;105332;1274;59691;-72
2022/01/31 08:28:11;;;;;;;11.50;3.20;;;;;;;0.42;70.25;98641.89;105465;1274;75041;-73
2022/01/31 08:31:07;;;;;;;11.70;3.30;;;;;;;0.62;69.87;98643.51;105091;1274;67883;-74
2022/01/31 08:36:46;;;;;;;10.00;2.40;;;;;;;2.13;67.42;98623.26;105038;1274;59672;-74
2022/01/31 08:39:34;;;;;;;12.00;3.40;;;;;;;2.97;65.26;98616.95;105264;1274;59627;-75
2022/01/31 08:42:23;;;;;;;9.90;2.80;;;;;;;3.66;61.53;98614.86;104916;1274;73180;-75
2022/01/31 08:45:12;;;;;;;9.10;2.70;;;;;;;4.38;59.28;98602.23;104658;1275;68134;-74
2022/01/31 08:48:02;;;;;;;21.00;7.90;;;;;;;5.19;56.92;98600.92;104856;1275;71838;-74
2022/01/31 08:50:52;;;;;;;16.60;4.50;;;;;;;6.13;55.72;98604.00;104671;1275;59657;-75
2022/01/31 08:53:41;;;;;;;10.00;3.00;;;;;;;7.29;53.72;98601.80;104624;1275;1003857;-74
2022/01/31 08:56:39;;;;;;;9.00;2.50;;;;;;;8.07;49.86;98597.02;104621;1274;72021;-74
2022/01/31 08:59:28;;;;;;;8.60;2.50;;;;;;;8.52;47.49;98595.50;105025;1275;66780;-74
2022/01/31 09:02:26;;;;;;;8.30;2.20;;;;;;;8.75;46.38;98595.98;104931;1274;71565;-74
2022/01/31 09:05:15;;;;;;;7.90;2.30;;;;;;;8.81;44.64;98592.46;104807;1274;59738;-74
2022/01/31 09:08:04;;;;;;;7.30;2.10;;;;;;;8.36;45.15;98589.46;104761;1275;60293;-72
2022/01/31 09:10:53;;;;;;;8.40;2.10;;;;;;;8.07;45.58;98586.63;105034;1275;73003;-75
2022/01/31 09:13:41;;;;;;;7.60;2.20;;;;;;;7.71;45.78;98590.86;105405;1274;65946;-74
2022/01/31 09:16:33;;;;;;;9.30;2.30;;;;;;;7.43;45.97;98595.09;105074;1274;73131;-75
2022/01/31 09:19:28;;;;;;;8.70;2.40;;;;;;;7.34;48.05;98592.03;105243;1274;59681;-74
2022/01/31 09:22:17;;;;;;;8.00;1.90;;;;;;;7.51;46.71;98589.82;105074;1274;59641;-75
2022/01/31 09:25:08;;;;;;;8.80;2.20;;;;;;;7.64;46.12;98592.25;104970;1274;73138;-76
2022/01/31 09:28:02;;;;;;;8.00;2.00;;;;;;;7.60;45.40;98587.64;104915;1274;70196;-74
2022/01/31 09:30:52;;;;;;;8.30;2.00;;;;;;;7.15;45.74;98588.75;105099;1274;72935;-75
2022/01/31 09:33:51;;;;;;;11.20;2.20;;;;;;;7.56;46.05;98592.89;105107;1274;59787;-74
2022/01/31 09:36:40;;;;;;;9.20;2.00;;;;;;;7.68;45.20;98594.20;104928;1274;62320;-74
2022/01/31 09:39:31;;;;;;;8.80;2.10;;;;;;;7.51;45.32;98587.00;104781;1274;71765;-76
2022/01/31 09:42:30;;;;;;;8.90;1.80;;;;;;;7.64;45.03;98588.66;104960;1273;68294;-74
2022/01/31 09:46:04;;;;;;;10.40;2.80;;;;;;;7.22;45.22;98597.34;105901;1274;73525;-79
2022/01/31 09:48:51;;;;;;;10.50;2.50;;;;;;;7.45;45.66;98596.75;106022;1273;59734;-79
2022/01/31 09:51:47;;;;;;;8.50;2.60;;;;;;;8.08;44.34;98596.22;106136;1274;60491;-79
2022/01/31 09:54:37;;;;;;;9.50;2.40;;;;;;;8.64;42.38;98594.16;106152;1273;73852;-79
2022/01/31 09:57:26;;;;;;;9.20;2.60;;;;;;;8.94;41.97;98592.45;105538;1273;68086;-79
2022/01/31 10:00:16;;;;;;;8.60;2.50;;;;;;;8.28;42.06;98591.09;105305;1274;72671;-79
2022/01/31 10:03:11;;;;;;;7.20;2.00;;;;;;;7.62;43.11;98598.06;105524;1274;59675;-78
2022/01/31 10:06:01;;;;;;;7.70;2.00;;;;;;;7.91;42.96;98589.96;105393;1274;61005;-79
2022/01/31 10:09:18;;;;;;;8.80;2.20;;;;;;;8.22;42.14;98587.67;105463;1274;73753;-79
2022/01/31 10:18:28;;;;;;;8.10;2.30;;;;;;;9.47;39.42;98583.88;105473;1274;59663;-78
2022/01/31 10:21:30;;;;;;;9.70;2.60;;;;;;;9.63;39.09;98580.95;105186;1273;60446;-74
2022/01/31 10:24:19;;;;;;;9.80;2.60;;;;;;;9.88;38.74;98581.02;105038;1274;72438;-75
2022/01/31 10:27:13;;;;;;;8.90;2.30;;;;;;;9.80;39.02;98576.43;105281;1274;66816;-75
2022/01/31 10:30:11;;;;;;;10.10;2.60;;;;;;;9.20;39.57;98580.40;105566;1274;71866;-75
2022/01/31 10:32:59;;;;;;;10.20;2.60;;;;;;;8.71;39.93;98583.61;104889;1274;59655;-75
2022/01/31 10:35:48;;;;;;;9.80;2.40;;;;;;;8.90;39.76;98588.59;105046;1274;60564;-75
2022/01/31 10:38:38;;;;;;;11.10;3.40;;;;;;;8.78;39.52;98587.00;105166;1273;73411;-74
2022/01/31 10:44:59;;;;;;;7.50;1.80;;;;;;;9.75;37.71;98584.34;105265;1274;73232;-74
2022/01/31 10:54:36;;;;;;;6.50;1.80;;;;;;;10.26;35.93;98577.55;105472;1274;73017;-75
2022/01/31 10:57:24;;;;;;;7.00;2.00;;;;;;;10.80;34.91;98574.33;105469;1274;67824;-74
2022/01/31 11:00:14;;;;;;;6.90;1.70;;;;;;;11.21;34.20;98573.83;105209;1274;70683;-75
2022/01/31 11:03:32;;;;;;;5.90;1.60;;;;;;;11.17;33.30;98567.34;105231;1273;59731;-74
2022/01/31 11:06:23;;;;;;;7.30;1.80;;;;;;;11.48;33.45;98566.55;105299;1274;61381;-74
2022/01/31 11:09:16;;;;;;;8.20;1.90;;;;;;;11.83;33.04;98561.48;105195;1274;73394;-75
2022/01/31 11:12:07;;;;;;;7.00;1.90;;;;;;;12.22;31.95;98557.54;105180;1274;66915;-74
2022/01/31 11:14:56;;;;;;;6.90;1.90;;;;;;;12.62;31.79;98554.56;105065;1274;73249;-75
2022/01/31 11:17:48;;;;;;;8.60;2.30;;;;;;;12.91;31.12;98562.05;105106;1274;59682;-75
2022/01/31 11:20:42;;;;;;;7.60;2.00;;;;;;;12.80;31.20;98566.48;104933;1274;59646;-75
2022/01/31 11:23:38;;;;;;;7.50;1.40;;;;;;;12.45;30.54;98569.17;104629;1276;73598;-75
2022/01/31 11:26:39;;;;;;;6.40;1.40;;;;;;;11.32;31.16;98575.17;104816;1273;66905;-75
2022/01/31 11:29:28;;;;;;;7.00;1.60;;;;;;;10.13;32.70;98572.14;105102;1273;71747;-74
2022/01/31 11:32:16;;;;;;;7.50;1.70;;;;;;;8.95;35.18;98576.39;105177;1273;59637;-74
2022/01/31 11:35:06;;;;;;;7.60;1.70;;;;;;;8.11;37.10;98580.06;104968;1274;59654;-74
2022/01/31 11:37:55;;;;;;;8.50;1.70;;;;;;;7.29;38.48;98586.84;105099;1273;73533;-74
2022/01/31 11:40:44;;;;;;;7.40;1.70;;;;;;;6.69;39.80;98582.77;105138;1273;68316;-74
2022/01/31 11:43:33;;;;;;;9.00;1.70;;;;;;;6.26;41.23;98593.80;105152;1274;72983;-74
2022/01/31 11:46:26;;;;;;;6.70;1.90;;;;;;;5.60;42.12;98594.02;105211;1273;59775;-73
2022/01/31 11:49:15;;;;;;;7.50;1.70;;;;;;;5.05;43.48;98592.18;105303;1273;60235;-73
2022/01/31 11:52:07;;;;;;;7.20;1.90;;;;;;;4.56;44.82;98599.09;104871;1273;73449;-74
2022/01/31 11:55:54;;;;;;;7.80;1.70;;;;;;;4.03;46.61;98603.43;102613;1300;600259;-75
2022/01/31 11:58:52;;;;;;;6.70;1.70;;;;;;;3.70;47.71;98602.70;104216;1287;59228;-74
2022/01/31 12:01:42;;;;;;;7.20;1.80;;;;;;;4.06;48.29;98592.88;104253;1287;60588;-74
2022/01/31 12:04:34;;;;;;;8.10;1.70;;;;;;;4.53;47.32;98588.79;103812;1287;71184;-74
2022/01/31 12:07:42;;;;;;;5.50;1.50;;;;;;;4.38;47.26;98585.57;103919;1287;68279;-75
2022/01/31 12:10:41;;;;;;;6.90;1.80;;;;;;;3.89;48.27;98586.70;104607;1278;222899;-74
2022/01/31 12:13:45;;;;;;;8.80;1.90;;;;;;;3.61;49.10;98601.90;104914;1278;59234;-74
2022/01/31 12:16:47;;;;;;;8.10;1.60;;;;;;;3.44;50.12;98603.68;105010;1271;59866;-73
2022/01/31 12:22:48;;;;;;;8.00;1.70;;;;;;;3.72;49.15;98595.85;104940;1271;68630;-74
2022/01/31 12:25:36;;;;;;;6.90;1.40;;;;;;;4.19;48.20;98592.56;105051;1271;73019;-74
2022/01/31 12:28:43;;;;;;;5.90;1.60;;;;;;;4.09;47.44;98598.73;104983;1271;59284;-73
2022/01/31 12:31:34;;;;;;;6.30;1.50;;;;;;;4.26;47.18;98594.87;104964;1271;59337;-74
2022/01/31 12:34:24;;;;;;;6.50;1.70;;;;;;;4.49;46.76;98605.07;105119;1271;70394;-74
2022/01/31 12:37:26;;;;;;;6.20;1.50;;;;;;;5.04;46.19;98605.08;105004;1271;66753;-74
2022/01/31 12:40:29;;;;;;;7.10;1.80;;;;;;;5.56;44.90;98605.26;105018;1271;72862;-74
2022/01/31 12:43:46;;;;;;;5.80;1.40;;;;;;;5.63;44.91;98605.53;105017;1271;59461;-74
2022/01/31 12:46:32;;;;;;;5.70;1.50;;;;;;;5.51;44.56;98611.08;105263;1271;59958;-74
2022/01/31 12:49:21;;;;;;;7.60;1.60;;;;;;;5.59;43.36;98607.48;105183;1271;70478;-75
2022/01/31 12:52:12;;;;;;;7.30;1.70;;;;;;;5.47;42.79;98612.08;104990;1271;68055;-74
2022/01/31 12:55:10;;;;;;;6.90;1.50;;;;;;;5.19;42.95;98613.45;105427;1271;73553;-74
2022/01/31 12:57:58;;;;;;;7.60;1.40;;;;;;;4.61;43.52;98614.20;105040;1271;59309;-73
2022/01/31 13:00:46;;;;;;;7.20;1.60;;;;;;;4.19;44.61;98616.09;105022;1271;59290;-74
2022/01/31 13:04:03;;;;;;;6.70;1.70;;;;;;;4.05;45.48;98610.65;104940;1274;70709;-74
2022/01/31 13:06:55;;;;;;;7.70;1.80;;;;;;;3.90;45.63;98613.52;105307;1271;67071;-74
2022/01/31 13:09:43;;;;;;;5.70;1.10;;;;;;;3.65;46.03;98620.77;104936;1271;72204;-74
2022/01/31 13:12:31;;;;;;;5.10;1.30;;;;;;;3.56;46.16;98614.88;104950;1274;59302;-74
2022/01/31 13:15:23;;;;;;;4.20;1.00;;;;;;;3.47;46.65;98612.77;105020;1272;60803;-73
2022/01/31 13:18:11;;;;;;;8.40;1.80;;;;;;;3.16;47.04;98612.46;104941;1271;71642;-73
2022/01/31 13:21:03;;;;;;;6.60;1.50;;;;;;;2.84;47.56;98618.01;105305;1274;68379;-73
2022/01/31 13:23:57;;;;;;;7.00;1.50;;;;;;;2.54;48.45;98622.13;105008;1272;71964;-74
2022/01/31 13:26:58;;;;;;;8.10;1.50;;;;;;;2.21;49.50;98625.18;105156;1271;59221;-73
2022/01/31 13:29:50;;;;;;;6.00;1.40;;;;;;;1.93;50.71;98631.23;105083;1271;59483;-73
2022/01/31 13:32:40;;;;;;;8.40;1.60;;;;;;;1.70;51.87;98632.88;104326;1271;1003065;-74
2022/01/31 13:35:31;;;;;;;7.30;1.50;;;;;;;1.53;52.68;98626.27;104943;1271;68239;-73
2022/01/31 13:38:21;;;;;;;6.30;1.60;;;;;;;1.43;53.66;98628.64;105287;1271;71859;-74
2022/01/31 13:41:11;;;;;;;6.60;1.70;;;;;;;1.35;54.14;98633.12;105221;1271;59294;-73
2022/01/31 13:44:03;;;;;;;5.90;1.50;;;;;;;1.28;54.48;98630.27;104934;1271;60452;-73
2022/01/31 13:46:55;;;;;;;5.70;1.50;;;;;;;1.26;54.90;98631.96;105438;1271;72385;-74
2022/01/31 13:49:50;;;;;;;6.30;1.40;;;;;;;1.20;55.45;98633.38;105097;1271;68449;-72